Accueil
METAR-TAF:

METAR-TAF

Aéroports :

Aéroport international de Ko Samui

Ko Samui, Thaïlande

latitude: 09-32-52N, longitude: 100-03-44E, altitude: 20 m

Observation

Le bulletin a été fait il y a 58 minutes, à 23:00 UTC
Vent 2 kt de direction variable
Température 29°C
Humidité 84%
Pression 1007 hPa
Visibilité 10 km ou plus
Quelques nuages à une hauteur de 2000 ft

METAR: VTSM 182300Z VRB02KT 9999 FEW020 29/26 Q1007 NOSIG

Heure: 06:58 (23:58 UTC)

Prévision

Le bulletin a été fait il y a 58 minutes, à 23:00 UTC
Prévision valable du 19 à 00 UTC au 19 à 24 UTC
Vent 8 kt de sud/sud-est
Visibilité 10 km ou plus
Quelques nuages à une hauteur de 2000 ft

TAF: VTSM 182300Z 1900/1924 15008KT 9999 FEW020

Observations et prévisions météorologiques de plus de 4000 aéroports (messages METAR et TAF).

Les stations disponibles sont représentées par des disques jaunes et rouges sur la carte.

Passer la souris dessus pour voir le nom de la station.

Cliquer dessus pour voir les observations et prévisions météorologiques.

Pour changer de carte: cliquez sur les boutons verts avec une croix noire pour zoomer, sur le bouton vert avec un tiret pour effectuer un zoom arrière, ou sur les flèches vertes pour les cartes adjacentes.


METAR-TAF: